sensor_id;sensor_type;location;lat;lon;timestamp;temperature;humidity
77803;DHT22;66993;48.256;16.422;2024-03-08T00:00:17;3.4;79.0
77803;DHT22;66993;48.256;16.422;2024-03-08T00:05:16;3.4;79.0
77803;DHT22;66993;48.256;16.422;2024-03-08T00:10:16;3.4;79.0
77803;DHT22;66993;48.256;16.422;2024-03-08T00:15:16;3.4;79.0
77803;DHT22;66993;48.256;16.422;2024-03-08T00:20:16;3.3;80.0
77803;DHT22;66993;48.256;16.422;2024-03-08T00:25:16;3.3;80.0
77803;DHT22;66993;48.256;16.422;2024-03-08T00:30:16;3.3;80.0
77803;DHT22;66993;48.256;16.422;2024-03-08T00:35:16;3.3;80.0
77803;DHT22;66993;48.256;16.422;2024-03-08T00:40:16;3.3;80.0
77803;DHT22;66993;48.256;16.422;2024-03-08T00:45:16;3.3;80.0
77803;DHT22;66993;48.256;16.422;2024-03-08T00:50:16;3.3;80.0
77803;DHT22;66993;48.256;16.422;2024-03-08T00:55:16;3.3;80.0
77803;DHT22;66993;48.256;16.422;2024-03-08T01:00:16;3.3;80.0
77803;DHT22;66993;48.256;16.422;2024-03-08T01:05:16;3.3;81.0
77803;DHT22;66993;48.256;16.422;2024-03-08T01:10:16;3.2;81.0
77803;DHT22;66993;48.256;16.422;2024-03-08T01:15:16;3.3;81.0
77803;DHT22;66993;48.256;16.422;2024-03-08T01:20:16;3.1;82.0
77803;DHT22;66993;48.256;16.422;2024-03-08T01:25:16;3.1;82.0
77803;DHT22;66993;48.256;16.422;2024-03-08T01:30:16;2.9;83.0
77803;DHT22;66993;48.256;16.422;2024-03-08T01:35:16;2.9;83.0
77803;DHT22;66993;48.256;16.422;2024-03-08T01:40:16;2.8;83.0
77803;DHT22;66993;48.256;16.422;2024-03-08T01:45:16;2.7;85.0
77803;DHT22;66993;48.256;16.422;2024-03-08T01:50:16;2.6;85.0
77803;DHT22;66993;48.256;16.422;2024-03-08T01:55:16;2.5;86.0
77803;DHT22;66993;48.256;16.422;2024-03-08T02:00:16;2.4;86.0
77803;DHT22;66993;48.256;16.422;2024-03-08T02:05:16;2.5;86.0
77803;DHT22;66993;48.256;16.422;2024-03-08T02:10:16;2.4;87.0
77803;DHT22;66993;48.256;16.422;2024-03-08T02:15:16;2.4;88.0
77803;DHT22;66993;48.256;16.422;2024-03-08T02:20:16;2.3;88.0
77803;DHT22;66993;48.256;16.422;2024-03-08T02:25:16;2.4;89.0
77803;DHT22;66993;48.256;16.422;2024-03-08T02:30:16;2.4;89.0
77803;DHT22;66993;48.256;16.422;2024-03-08T02:35:16;2.4;90.0
77803;DHT22;66993;48.256;16.422;2024-03-08T02:40:16;2.4;90.0
77803;DHT22;66993;48.256;16.422;2024-03-08T02:45:16;2.4;91.0
77803;DHT22;66993;48.256;16.422;2024-03-08T02:50:16;2.5;91.0
77803;DHT22;66993;48.256;16.422;2024-03-08T02:55:16;2.4;91.0
77803;DHT22;66993;48.256;16.422;2024-03-08T03:00:16;2.4;91.0
77803;DHT22;66993;48.256;16.422;2024-03-08T03:05:16;2.5;92.0
77803;DHT22;66993;48.256;16.422;2024-03-08T03:10:16;2.5;92.0
77803;DHT22;66993;48.256;16.422;2024-03-08T03:15:16;2.5;93.0
77803;DHT22;66993;48.256;16.422;2024-03-08T03:20:16;2.4;93.0
77803;DHT22;66993;48.256;16.422;2024-03-08T03:25:16;2.4;94.0
77803;DHT22;66993;48.256;16.422;2024-03-08T03:30:16;2.4;94.0
77803;DHT22;66993;48.256;16.422;2024-03-08T03:35:16;2.4;95.0
77803;DHT22;66993;48.256;16.422;2024-03-08T03:40:16;2.4;95.0
77803;DHT22;66993;48.256;16.422;2024-03-08T03:45:16;2.4;95.0
77803;DHT22;66993;48.256;16.422;2024-03-08T03:50:16;2.4;95.0
77803;DHT22;66993;48.256;16.422;2024-03-08T03:55:16;2.3;96.0
77803;DHT22;66993;48.256;16.422;2024-03-08T04:00:16;2.4;96.0
77803;DHT22;66993;48.256;16.422;2024-03-08T04:05:16;2.4;96.0
77803;DHT22;66993;48.256;16.422;2024-03-08T04:10:16;2.3;96.0
77803;DHT22;66993;48.256;16.422;2024-03-08T04:15:16;2.3;96.0
77803;DHT22;66993;48.256;16.422;2024-03-08T04:20:16;2.3;96.0
77803;DHT22;66993;48.256;16.422;2024-03-08T04:25:16;2.3;97.0
77803;DHT22;66993;48.256;16.422;2024-03-08T04:30:16;2.3;97.0
77803;DHT22;66993;48.256;16.422;2024-03-08T04:35:16;2.3;97.0
77803;DHT22;66993;48.256;16.422;2024-03-08T04:40:16;2.3;97.0
77803;DHT22;66993;48.256;16.422;2024-03-08T04:45:16;2.4;97.0
77803;DHT22;66993;48.256;16.422;2024-03-08T04:50:16;2.5;98.0
77803;DHT22;66993;48.256;16.422;2024-03-08T04:55:16;2.4;98.0
77803;DHT22;66993;48.256;16.422;2024-03-08T05:00:16;2.4;98.0
77803;DHT22;66993;48.256;16.422;2024-03-08T05:05:16;2.4;98.0
77803;DHT22;66993;48.256;16.422;2024-03-08T05:10:16;2.4;98.0
77803;DHT22;66993;48.256;16.422;2024-03-08T05:15:16;2.5;98.0
77803;DHT22;66993;48.256;16.422;2024-03-08T05:20:16;2.4;98.0
77803;DHT22;66993;48.256;16.422;2024-03-08T05:25:16;2.5;98.0
77803;DHT22;66993;48.256;16.422;2024-03-08T05:30:16;2.5;98.0
77803;DHT22;66993;48.256;16.422;2024-03-08T05:35:16;2.5;99.0
77803;DHT22;66993;48.256;16.422;2024-03-08T05:40:16;2.5;99.0
77803;DHT22;66993;48.256;16.422;2024-03-08T05:45:16;2.5;99.0
77803;DHT22;66993;48.256;16.422;2024-03-08T05:50:16;2.5;99.0
77803;DHT22;66993;48.256;16.422;2024-03-08T05:55:16;2.6;99.0
77803;DHT22;66993;48.256;16.422;2024-03-08T06:00:16;2.7;99.0
77803;DHT22;66993;48.256;16.422;2024-03-08T06:05:16;2.5;99.0
77803;DHT22;66993;48.256;16.422;2024-03-08T06:10:16;2.5;99.0
77803;DHT22;66993;48.256;16.422;2024-03-08T06:15:16;2.5;99.0
77803;DHT22;66993;48.256;16.422;2024-03-08T06:20:16;2.6;99.0
77803;DHT22;66993;48.256;16.422;2024-03-08T06:25:16;2.6;99.0
77803;DHT22;66993;48.256;16.422;2024-03-08T06:30:16;2.6;99.0
77803;DHT22;66993;48.256;16.422;2024-03-08T06:35:16;2.7;98.0
77803;DHT22;66993;48.256;16.422;2024-03-08T06:40:16;2.9;98.0
77803;DHT22;66993;48.256;16.422;2024-03-08T06:45:16;2.9;98.0
77803;DHT22;66993;48.256;16.422;2024-03-08T06:50:16;3.1;98.0
77803;DHT22;66993;48.256;16.422;2024-03-08T06:55:16;3.1;98.0
77803;DHT22;66993;48.256;16.422;2024-03-08T07:00:16;3.1;98.0
77803;DHT22;66993;48.256;16.422;2024-03-08T07:05:16;3.3;98.0
77803;DHT22;66993;48.256;16.422;2024-03-08T07:10:16;3.6;98.0
77803;DHT22;66993;48.256;16.422;2024-03-08T07:15:16;3.6;98.0
77803;DHT22;66993;48.256;16.422;2024-03-08T07:20:16;4.0;98.0
77803;DHT22;66993;48.256;16.422;2024-03-08T07:25:16;4.0;98.0
77803;DHT22;66993;48.256;16.422;2024-03-08T07:30:16;3.9;98.0
77803;DHT22;66993;48.256;16.422;2024-03-08T07:35:16;3.8;98.0
77803;DHT22;66993;48.256;16.422;2024-03-08T07:40:16;3.8;98.0
77803;DHT22;66993;48.256;16.422;2024-03-08T07:45:16;3.8;97.0
77803;DHT22;66993;48.256;16.422;2024-03-08T07:50:16;3.9;97.0
77803;DHT22;66993;48.256;16.422;2024-03-08T07:55:16;3.9;97.0
77803;DHT22;66993;48.256;16.422;2024-03-08T08:00:16;4.1;97.0
77803;DHT22;66993;48.256;16.422;2024-03-08T08:05:16;4.4;97.0
77803;DHT22;66993;48.256;16.422;2024-03-08T08:10:16;4.4;97.0
77803;DHT22;66993;48.256;16.422;2024-03-08T08:15:16;4.5;97.0
77803;DHT22;66993;48.256;16.422;2024-03-08T08:20:16;4.4;97.0
77803;DHT22;66993;48.256;16.422;2024-03-08T08:25:16;4.5;96.0
77803;DHT22;66993;48.256;16.422;2024-03-08T08:30:16;4.5;96.0
77803;DHT22;66993;48.256;16.422;2024-03-08T08:35:16;4.5;96.0
77803;DHT22;66993;48.256;16.422;2024-03-08T08:40:16;4.5;96.0
77803;DHT22;66993;48.256;16.422;2024-03-08T08:45:16;4.6;96.0
77803;DHT22;66993;48.256;16.422;2024-03-08T08:50:16;4.8;96.0
77803;DHT22;66993;48.256;16.422;2024-03-08T08:55:16;4.6;96.0
77803;DHT22;66993;48.256;16.422;2024-03-08T09:00:16;4.5;96.0
77803;DHT22;66993;48.256;16.422;2024-03-08T09:05:16;4.6;96.0
77803;DHT22;66993;48.256;16.422;2024-03-08T09:10:16;4.7;96.0
77803;DHT22;66993;48.256;16.422;2024-03-08T09:15:16;4.4;96.0
77803;DHT22;66993;48.256;16.422;2024-03-08T09:20:16;4.6;96.0
77803;DHT22;66993;48.256;16.422;2024-03-08T09:25:16;4.5;96.0
77803;DHT22;66993;48.256;16.422;2024-03-08T09:30:16;4.5;96.0
77803;DHT22;66993;48.256;16.422;2024-03-08T09:35:16;4.7;96.0
77803;DHT22;66993;48.256;16.422;2024-03-08T09:40:16;4.8;96.0
77803;DHT22;66993;48.256;16.422;2024-03-08T09:45:16;5.0;96.0
77803;DHT22;66993;48.256;16.422;2024-03-08T09:50:16;5.3;95.0
77803;DHT22;66993;48.256;16.422;2024-03-08T09:55:16;5.5;95.0
77803;DHT22;66993;48.256;16.422;2024-03-08T10:00:16;5.6;95.0
77803;DHT22;66993;48.256;16.422;2024-03-08T10:05:16;6.1;94.0
77803;DHT22;66993;48.256;16.422;2024-03-08T10:10:16;5.8;94.0
77803;DHT22;66993;48.256;16.422;2024-03-08T10:15:16;6.3;93.0
77803;DHT22;66993;48.256;16.422;2024-03-08T10:20:17;6.2;93.0
77803;DHT22;66993;48.256;16.422;2024-03-08T10:25:16;6.7;92.0
77803;DHT22;66993;48.256;16.422;2024-03-08T10:30:16;6.7;91.0
77803;DHT22;66993;48.256;16.422;2024-03-08T10:35:16;6.9;89.0
77803;DHT22;66993;48.256;16.422;2024-03-08T10:40:17;7.0;88.0
77803;DHT22;66993;48.256;16.422;2024-03-08T10:45:19;7.2;86.0
77803;DHT22;66993;48.256;16.422;2024-03-08T10:50:17;7.4;85.0
77803;DHT22;66993;48.256;16.422;2024-03-08T10:55:16;7.4;84.0
77803;DHT22;66993;48.256;16.422;2024-03-08T11:00:16;7.4;83.0
77803;DHT22;66993;48.256;16.422;2024-03-08T11:05:30;7.3;83.0
77803;DHT22;66993;48.256;16.422;2024-03-08T11:10:19;7.2;82.0
77803;DHT22;66993;48.256;16.422;2024-03-08T11:15:16;7.0;82.0
77803;DHT22;66993;48.256;16.422;2024-03-08T11:20:16;7.3;82.0
77803;DHT22;66993;48.256;16.422;2024-03-08T11:25:32;7.3;82.0
77803;DHT22;66993;48.256;16.422;2024-03-08T11:30:16;6.8;83.0
77803;DHT22;66993;48.256;16.422;2024-03-08T11:35:18;7.1;83.0
77803;DHT22;66993;48.256;16.422;2024-03-08T11:40:16;6.9;83.0
77803;DHT22;66993;48.256;16.422;2024-03-08T11:45:16;6.8;83.0
77803;DHT22;66993;48.256;16.422;2024-03-08T11:50:16;6.9;83.0
77803;DHT22;66993;48.256;16.422;2024-03-08T11:55:16;7.1;82.0
77803;DHT22;66993;48.256;16.422;2024-03-08T12:00:16;7.9;82.0
77803;DHT22;66993;48.256;16.422;2024-03-08T12:05:16;8.9;77.0
77803;DHT22;66993;48.256;16.422;2024-03-08T12:10:16;8.4;76.0
77803;DHT22;66993;48.256;16.422;2024-03-08T12:15:16;8.2;76.0
77803;DHT22;66993;48.256;16.422;2024-03-08T12:20:16;8.2;77.0
77803;DHT22;66993;48.256;16.422;2024-03-08T12:25:16;8.2;77.0
77803;DHT22;66993;48.256;16.422;2024-03-08T12:30:17;7.9;77.0
77803;DHT22;66993;48.256;16.422;2024-03-08T12:35:16;8.0;77.0
77803;DHT22;66993;48.256;16.422;2024-03-08T12:40:16;8.3;77.0
77803;DHT22;66993;48.256;16.422;2024-03-08T12:45:16;8.2;77.0
77803;DHT22;66993;48.256;16.422;2024-03-08T12:50:16;8.7;77.0
77803;DHT22;66993;48.256;16.422;2024-03-08T12:55:16;8.7;77.0
77803;DHT22;66993;48.256;16.422;2024-03-08T13:00:16;8.4;77.0
77803;DHT22;66993;48.256;16.422;2024-03-08T13:05:16;7.9;76.0
77803;DHT22;66993;48.256;16.422;2024-03-08T13:10:16;8.0;76.0
77803;DHT22;66993;48.256;16.422;2024-03-08T13:15:16;7.8;76.0
77803;DHT22;66993;48.256;16.422;2024-03-08T13:20:16;7.7;76.0
77803;DHT22;66993;48.256;16.422;2024-03-08T13:25:16;7.6;76.0
77803;DHT22;66993;48.256;16.422;2024-03-08T13:30:16;7.7;76.0
77803;DHT22;66993;48.256;16.422;2024-03-08T13:35:16;7.7;76.0
77803;DHT22;66993;48.256;16.422;2024-03-08T13:40:16;7.7;76.0
77803;DHT22;66993;48.256;16.422;2024-03-08T13:45:16;7.8;76.0
77803;DHT22;66993;48.256;16.422;2024-03-08T13:50:16;8.0;76.0
77803;DHT22;66993;48.256;16.422;2024-03-08T13:55:16;8.4;76.0
77803;DHT22;66993;48.256;16.422;2024-03-08T14:00:16;8.7;76.0
77803;DHT22;66993;48.256;16.422;2024-03-08T14:05:16;8.5;76.0
77803;DHT22;66993;48.256;16.422;2024-03-08T14:10:16;8.8;75.0
77803;DHT22;66993;48.256;16.422;2024-03-08T14:15:16;8.5;75.0
77803;DHT22;66993;48.256;16.422;2024-03-08T14:20:16;8.3;75.0
77803;DHT22;66993;48.256;16.422;2024-03-08T14:25:16;8.4;75.0
77803;DHT22;66993;48.256;16.422;2024-03-08T14:30:16;8.1;75.0
77803;DHT22;66993;48.256;16.422;2024-03-08T14:35:16;8.0;75.0
77803;DHT22;66993;48.256;16.422;2024-03-08T14:40:16;8.2;75.0
77803;DHT22;66993;48.256;16.422;2024-03-08T14:45:16;8.2;75.0
77803;DHT22;66993;48.256;16.422;2024-03-08T14:50:16;8.2;75.0
77803;DHT22;66993;48.256;16.422;2024-03-08T14:55:16;8.0;75.0
77803;DHT22;66993;48.256;16.422;2024-03-08T15:00:17;7.9;75.0
77803;DHT22;66993;48.256;16.422;2024-03-08T15:05:16;8.1;75.0
77803;DHT22;66993;48.256;16.422;2024-03-08T15:10:16;8.0;76.0
77803;DHT22;66993;48.256;16.422;2024-03-08T15:15:16;8.0;75.0
77803;DHT22;66993;48.256;16.422;2024-03-08T15:20:16;7.7;75.0
77803;DHT22;66993;48.256;16.422;2024-03-08T15:25:16;7.8;75.0
77803;DHT22;66993;48.256;16.422;2024-03-08T15:30:16;7.8;75.0
77803;DHT22;66993;48.256;16.422;2024-03-08T15:35:16;7.8;74.0
77803;DHT22;66993;48.256;16.422;2024-03-08T15:40:16;7.6;74.0
77803;DHT22;66993;48.256;16.422;2024-03-08T15:45:16;7.6;73.0
77803;DHT22;66993;48.256;16.422;2024-03-08T15:50:16;7.4;74.0
77803;DHT22;66993;48.256;16.422;2024-03-08T15:55:16;7.4;74.0
77803;DHT22;66993;48.256;16.422;2024-03-08T16:00:17;7.2;74.0
77803;DHT22;66993;48.256;16.422;2024-03-08T16:05:16;7.0;75.0
77803;DHT22;66993;48.256;16.422;2024-03-08T16:10:16;6.9;75.0
77803;DHT22;66993;48.256;16.422;2024-03-08T16:15:16;6.8;75.0
77803;DHT22;66993;48.256;16.422;2024-03-08T16:20:16;6.6;75.0
77803;DHT22;66993;48.256;16.422;2024-03-08T16:25:16;6.6;76.0
77803;DHT22;66993;48.256;16.422;2024-03-08T16:30:16;6.5;76.0
77803;DHT22;66993;48.256;16.422;2024-03-08T16:35:16;6.4;76.0
77803;DHT22;66993;48.256;16.422;2024-03-08T16:40:16;6.4;76.0
77803;DHT22;66993;48.256;16.422;2024-03-08T16:45:16;6.3;77.0
77803;DHT22;66993;48.256;16.422;2024-03-08T16:50:16;6.2;77.0
77803;DHT22;66993;48.256;16.422;2024-03-08T16:55:16;6.1;77.0
77803;DHT22;66993;48.256;16.422;2024-03-08T17:00:17;6.0;77.0
77803;DHT22;66993;48.256;16.422;2024-03-08T17:05:16;6.0;77.0
77803;DHT22;66993;48.256;16.422;2024-03-08T17:10:16;6.0;78.0
77803;DHT22;66993;48.256;16.422;2024-03-08T17:15:16;5.9;78.0
77803;DHT22;66993;48.256;16.422;2024-03-08T17:20:16;5.9;78.0
77803;DHT22;66993;48.256;16.422;2024-03-08T17:25:16;5.9;78.0
77803;DHT22;66993;48.256;16.422;2024-03-08T17:30:16;5.8;78.0
77803;DHT22;66993;48.256;16.422;2024-03-08T17:35:16;5.7;79.0
77803;DHT22;66993;48.256;16.422;2024-03-08T17:40:16;5.6;79.0
77803;DHT22;66993;48.256;16.422;2024-03-08T17:45:16;5.5;79.0
77803;DHT22;66993;48.256;16.422;2024-03-08T17:50:16;5.5;79.0
77803;DHT22;66993;48.256;16.422;2024-03-08T17:55:16;5.4;79.0
77803;DHT22;66993;48.256;16.422;2024-03-08T18:00:17;5.3;79.0
77803;DHT22;66993;48.256;16.422;2024-03-08T18:05:16;5.2;79.0
77803;DHT22;66993;48.256;16.422;2024-03-08T18:10:16;5.1;79.0
77803;DHT22;66993;48.256;16.422;2024-03-08T18:15:16;5.1;80.0
77803;DHT22;66993;48.256;16.422;2024-03-08T18:20:16;5.0;81.0
77803;DHT22;66993;48.256;16.422;2024-03-08T18:25:16;4.9;81.0
77803;DHT22;66993;48.256;16.422;2024-03-08T18:30:16;4.9;81.0
77803;DHT22;66993;48.256;16.422;2024-03-08T18:35:17;4.9;82.0
77803;DHT22;66993;48.256;16.422;2024-03-08T18:40:16;4.8;82.0
77803;DHT22;66993;48.256;16.422;2024-03-08T18:45:16;4.8;82.0
77803;DHT22;66993;48.256;16.422;2024-03-08T18:50:17;4.9;82.0
77803;DHT22;66993;48.256;16.422;2024-03-08T18:55:16;4.7;83.0
77803;DHT22;66993;48.256;16.422;2024-03-08T19:00:17;4.7;83.0
77803;DHT22;66993;48.256;16.422;2024-03-08T19:05:16;4.7;83.0
77803;DHT22;66993;48.256;16.422;2024-03-08T19:10:16;4.7;83.0
77803;DHT22;66993;48.256;16.422;2024-03-08T19:15:16;4.8;84.0
77803;DHT22;66993;48.256;16.422;2024-03-08T19:20:16;4.9;84.0
77803;DHT22;66993;48.256;16.422;2024-03-08T19:25:16;5.2;84.0
77803;DHT22;66993;48.256;16.422;2024-03-08T19:30:16;5.2;84.0
77803;DHT22;66993;48.256;16.422;2024-03-08T19:35:16;5.3;84.0
77803;DHT22;66993;48.256;16.422;2024-03-08T19:40:17;5.4;83.0
77803;DHT22;66993;48.256;16.422;2024-03-08T19:45:16;5.4;83.0
77803;DHT22;66993;48.256;16.422;2024-03-08T19:50:16;5.5;83.0
77803;DHT22;66993;48.256;16.422;2024-03-08T19:55:17;5.6;83.0
77803;DHT22;66993;48.256;16.422;2024-03-08T20:00:17;5.7;83.0
77803;DHT22;66993;48.256;16.422;2024-03-08T20:05:16;5.6;83.0
77803;DHT22;66993;48.256;16.422;2024-03-08T20:10:16;5.7;83.0
77803;DHT22;66993;48.256;16.422;2024-03-08T20:15:16;5.6;83.0
77803;DHT22;66993;48.256;16.422;2024-03-08T20:20:16;5.7;83.0
77803;DHT22;66993;48.256;16.422;2024-03-08T20:25:17;5.7;83.0
77803;DHT22;66993;48.256;16.422;2024-03-08T20:30:16;5.7;83.0
77803;DHT22;66993;48.256;16.422;2024-03-08T20:35:16;5.6;84.0
77803;DHT22;66993;48.256;16.422;2024-03-08T20:40:16;5.5;84.0
77803;DHT22;66993;48.256;16.422;2024-03-08T20:45:16;5.5;84.0
77803;DHT22;66993;48.256;16.422;2024-03-08T20:50:16;5.5;84.0
77803;DHT22;66993;48.256;16.422;2024-03-08T20:55:16;5.3;84.0
77803;DHT22;66993;48.256;16.422;2024-03-08T21:00:16;5.2;85.0
77803;DHT22;66993;48.256;16.422;2024-03-08T21:05:16;5.3;85.0
77803;DHT22;66993;48.256;16.422;2024-03-08T21:10:16;5.2;85.0
77803;DHT22;66993;48.256;16.422;2024-03-08T21:15:16;5.1;85.0
77803;DHT22;66993;48.256;16.422;2024-03-08T21:20:16;5.0;85.0
77803;DHT22;66993;48.256;16.422;2024-03-08T21:25:17;5.3;85.0
77803;DHT22;66993;48.256;16.422;2024-03-08T21:30:16;5.4;86.0
77803;DHT22;66993;48.256;16.422;2024-03-08T21:35:16;5.5;86.0
77803;DHT22;66993;48.256;16.422;2024-03-08T21:40:16;5.5;85.0
77803;DHT22;66993;48.256;16.422;2024-03-08T21:45:16;5.5;86.0
77803;DHT22;66993;48.256;16.422;2024-03-08T21:50:16;5.6;86.0
77803;DHT22;66993;48.256;16.422;2024-03-08T21:55:16;5.6;86.0
77803;DHT22;66993;48.256;16.422;2024-03-08T22:00:16;5.6;86.0
77803;DHT22;66993;48.256;16.422;2024-03-08T22:05:16;5.7;86.0
77803;DHT22;66993;48.256;16.422;2024-03-08T22:10:16;5.8;86.0
77803;DHT22;66993;48.256;16.422;2024-03-08T22:15:16;5.8;86.0
77803;DHT22;66993;48.256;16.422;2024-03-08T22:20:16;5.9;86.0
77803;DHT22;66993;48.256;16.422;2024-03-08T22:25:16;5.9;86.0
77803;DHT22;66993;48.256;16.422;2024-03-08T22:30:17;5.9;86.0
77803;DHT22;66993;48.256;16.422;2024-03-08T22:35:16;6.0;86.0
77803;DHT22;66993;48.256;16.422;2024-03-08T22:40:16;6.0;86.0
77803;DHT22;66993;48.256;16.422;2024-03-08T22:45:16;6.0;86.0
77803;DHT22;66993;48.256;16.422;2024-03-08T22:50:16;6.0;86.0
77803;DHT22;66993;48.256;16.422;2024-03-08T22:55:16;6.0;86.0
77803;DHT22;66993;48.256;16.422;2024-03-08T23:00:16;6.1;86.0
77803;DHT22;66993;48.256;16.422;2024-03-08T23:05:16;6.1;86.0
77803;DHT22;66993;48.256;16.422;2024-03-08T23:10:16;6.0;86.0
77803;DHT22;66993;48.256;16.422;2024-03-08T23:15:16;6.0;86.0
77803;DHT22;66993;48.256;16.422;2024-03-08T23:20:16;6.0;86.0
77803;DHT22;66993;48.256;16.422;2024-03-08T23:25:16;6.0;86.0
77803;DHT22;66993;48.256;16.422;2024-03-08T23:30:16;6.0;86.0
77803;DHT22;66993;48.256;16.422;2024-03-08T23:35:16;6.0;86.0
77803;DHT22;66993;48.256;16.422;2024-03-08T23:40:16;5.9;86.0
77803;DHT22;66993;48.256;16.422;2024-03-08T23:45:16;6.0;86.0
77803;DHT22;66993;48.256;16.422;2024-03-08T23:50:16;5.9;86.0
77803;DHT22;66993;48.256;16.422;2024-03-08T23:55:16;5.9;86.0
